Terminal Aerodrome Forecast
Issued by NWS

Home | Current Version | Previous Version | Text Only | Print | Product List | Glossary On
Versions: 1 2 3 4 5 6 7 8 9 10 11 12 13 14 15 16
000
FTUS45 KABQ 161700
TAFFMN
TAF
KFMN 161736Z 1618/1718 24007KT P6SM SCT150 OVC200
     FM161930 29015G25KT P6SM BKN120 OVC200
     FM170100 31009KT P6SM BKN100
     FM170400 VRB05KT P6SM SCT250=

USA.gov is the U.S. government's official web portal to all federal, state and local government web resources and services.